Terminal Aerodrome Forecast
Issued by NWS Grand Rapids, MI

Home | Current Version | Previous Version | Text Only | Print | Product List | Glossary On
Versions: 1 2 3 4 5 6 7 8 9 10 11 12 13 14 15 16 17 18 19 20 21
000
FTUS43 KGRR 181500 AAA
TAFGRR
TAF AMD
KGRR 181520Z 1815/1912 28006KT P6SM OVC015
     FM181900 30006KT P6SM OVC025
     FM190600 34003KT P6SM BKN040=

USA.gov is the U.S. government's official web portal to all federal, state and local government web resources and services.